Time;durP1;ratioP1;P1;durP2;ratioP2;P2;SDS_P1;SDS_P2;PMS_P1;PMS_P2;Temp;Humidity;BMP_temperature;BMP_pressure;BME280_temperature;BME280_humidity;BME280_pressure;Samples;Min_cycle;Max_cycle;Signal;HPM_P1;HPM_P2
2022/10/17 00:00:39;;;;;;;15.20;4.38;;;;;;;16.08;85.21;100441.75;5008729;28;20046;-85
2022/10/17 00:03:06;;;;;;;11.57;3.90;;;;;;;16.12;84.79;100442.25;4999263;28;20096;-85
2022/10/17 00:05:33;;;;;;;11.93;3.50;;;;;;;16.08;85.57;100436.38;5011966;28;20120;-85
2022/10/17 00:07:59;;;;;;;12.13;4.30;;;;;;;16.18;85.27;100433.59;5010123;28;20037;-85
2022/10/17 00:10:26;;;;;;;12.40;4.50;;;;;;;16.15;85.68;100442.78;5006367;28;20070;-85
2022/10/17 00:12:53;;;;;;;18.70;4.43;;;;;;;16.10;85.50;100444.25;5002487;28;20116;-84
2022/10/17 00:15:20;;;;;;;12.00;3.97;;;;;;;16.08;85.18;100444.44;5006542;28;20045;-85
2022/10/17 00:17:47;;;;;;;12.13;4.22;;;;;;;16.04;85.45;100451.09;4990125;28;20065;-86
2022/10/17 00:20:15;;;;;;;11.60;3.70;;;;;;;16.05;84.87;100450.06;4992427;28;20065;-84
2022/10/17 00:22:41;;;;;;;10.20;3.88;;;;;;;16.04;84.80;100445.72;4991839;28;20042;-85
2022/10/17 00:25:09;;;;;;;14.32;3.97;;;;;;;16.03;85.25;100449.41;5005883;28;20147;-86
2022/10/17 00:27:40;;;;;;;14.82;4.03;;;;;;;15.91;84.49;100454.16;5007505;28;20045;-84
2022/10/17 00:30:11;;;;;;;10.45;3.90;;;;;;;15.95;84.42;100455.53;5029124;28;20462;-85
2022/10/17 00:32:38;;;;;;;13.85;4.25;;;;;;;15.98;84.17;100457.91;5006910;28;20464;-85
2022/10/17 00:35:05;;;;;;;6.50;4.00;;;;;;;15.93;84.86;100452.19;5020448;28;20464;-85
2022/10/17 00:37:32;;;;;;;5.25;3.45;;;;;;;15.93;84.68;100462.06;5013096;28;20489;-85
2022/10/17 00:39:59;;;;;;;7.88;3.85;;;;;;;15.86;84.73;100458.31;5005155;28;20440;-85
2022/10/17 00:42:26;;;;;;;12.77;4.63;;;;;;;15.90;85.01;100467.69;4994102;28;20041;-85
2022/10/17 00:45:13;;;;;;;39.20;6.20;;;;;;;15.89;84.78;100460.66;4966045;28;20046;-85
2022/10/17 00:47:44;;;;;;;32.70;6.38;;;;;;;15.87;85.07;100470.69;4986811;28;20133;-86
2022/10/17 00:50:12;;;;;;;31.92;5.85;;;;;;;15.84;85.60;100461.13;4996791;28;20129;-85
2022/10/17 00:52:39;;;;;;;8.02;4.57;;;;;;;15.87;85.85;100465.34;4989835;28;20050;-84
2022/10/17 00:55:24;;;;;;;9.43;4.00;;;;;;;15.64;85.71;100463.94;5011231;28;20049;-85
2022/10/17 00:57:51;;;;;;;10.52;4.07;;;;;;;15.75;85.62;100459.41;4988704;28;20046;-85
2022/10/17 01:00:18;;;;;;;6.85;3.80;;;;;;;15.75;84.87;100462.91;4993585;28;20730;-85
2022/10/17 01:02:46;;;;;;;11.57;3.72;;;;;;;15.76;84.36;100469.94;4994061;28;20048;-85
2022/10/17 01:05:14;;;;;;;14.77;4.00;;;;;;;15.76;84.63;100467.25;5003726;28;20119;-85
2022/10/17 01:07:42;;;;;;;6.80;3.97;;;;;;;15.79;84.49;100466.94;4992583;28;20389;-84
2022/10/17 01:10:09;;;;;;;11.75;3.80;;;;;;;15.93;84.42;100470.94;5008166;28;20042;-84
2022/10/17 01:13:06;;;;;;;10.02;3.60;;;;;;;15.70;84.28;100475.91;4992176;28;20046;-85
2022/10/17 01:15:39;;;;;;;17.63;3.60;;;;;;;15.76;85.43;100469.94;4973253;28;20048;-86
2022/10/17 01:18:28;;;;;;;15.77;3.88;;;;;;;15.56;84.23;100473.72;5008580;28;20049;-85
2022/10/17 01:21:16;;;;;;;10.77;3.25;;;;;;;15.55;83.80;100475.56;4953453;28;20645;-85
2022/10/17 01:24:20;;;;;;;19.52;3.85;;;;;;;15.47;83.33;100482.66;4997976;28;20045;-88
2022/10/17 01:27:17;;;;;;;16.20;3.78;;;;;;;15.43;83.35;100481.28;4974660;28;20042;-85
2022/10/17 01:30:15;;;;;;;10.10;3.60;;;;;;;15.40;83.43;100480.59;4978472;28;20057;-87
2022/10/17 01:33:10;;;;;;;14.65;3.97;;;;;;;15.36;83.68;100478.38;4982439;28;20041;-85
2022/10/17 01:35:41;;;;;;;9.38;4.22;;;;;;;15.48;83.45;100473.66;4965272;28;20072;-85
2022/10/17 01:38:11;;;;;;;12.38;4.05;;;;;;;15.48;83.52;100484.38;5006464;28;20097;-85
2022/10/17 01:40:45;;;;;;;12.93;3.38;;;;;;;15.46;83.39;100479.16;4991377;28;20041;-85
2022/10/17 01:43:20;;;;;;;13.75;4.32;;;;;;;15.45;83.68;100487.34;5004209;28;20049;-84
2022/10/17 01:45:59;;;;;;;11.90;3.30;;;;;;;15.35;83.46;100495.44;4948767;28;20592;-85
2022/10/17 01:48:31;;;;;;;8.18;3.60;;;;;;;15.48;84.17;100489.72;4988345;28;20123;-85
2022/10/17 01:51:07;;;;;;;10.95;3.85;;;;;;;15.49;84.13;100494.91;5020059;28;20109;-84
2022/10/17 01:53:38;;;;;;;10.10;4.10;;;;;;;15.47;84.74;100486.19;5000830;28;20485;-85
2022/10/17 01:56:07;;;;;;;5.47;3.72;;;;;;;15.51;84.58;100492.91;4988174;28;20081;-84
2022/10/17 01:58:41;;;;;;;21.80;4.40;;;;;;;15.45;84.95;100488.19;4981485;28;20056;-86
2022/10/17 02:01:08;;;;;;;6.05;3.63;;;;;;;15.52;85.48;100491.94;4961715;28;20405;-86
2022/10/17 02:03:36;;;;;;;7.82;3.70;;;;;;;15.54;85.15;100494.44;4985808;28;20486;-85
2022/10/17 02:06:04;;;;;;;30.88;4.80;;;;;;;15.50;85.98;100488.56;5000500;28;20077;-85
2022/10/17 02:08:42;;;;;;;130.82;8.13;;;;;;;15.43;85.63;100490.16;4962553;28;20057;-85
2022/10/17 02:11:16;;;;;;;8.77;3.58;;;;;;;15.45;85.76;100485.50;5001253;28;20056;-85
2022/10/17 02:13:45;;;;;;;64.43;5.32;;;;;;;15.50;85.71;100488.56;4933472;28;20041;-85
2022/10/17 02:16:34;;;;;;;65.00;6.25;;;;;;;15.50;85.81;100482.38;4998851;28;20053;-85
2022/10/17 02:19:22;;;;;;;15.57;3.53;;;;;;;15.27;87.12;100488.16;4931559;28;20053;-87
2022/10/17 02:22:26;;;;;;;6.72;2.83;;;;;;;15.36;85.84;100487.22;4967027;28;20046;-84
2022/10/17 02:25:01;;;;;;;13.90;2.88;;;;;;;15.47;86.47;100479.97;4915040;28;20405;-85
2022/10/17 02:27:46;;;;;;;8.10;2.85;;;;;;;15.41;86.07;100476.09;5007127;28;20045;-85
2022/10/17 02:30:22;;;;;;;6.35;2.90;;;;;;;15.33;85.33;100468.81;4987121;28;21711;-85
2022/10/17 02:32:55;;;;;;;6.00;2.40;;;;;;;15.38;84.89;100469.19;5001362;28;20048;-85
2022/10/17 02:35:21;;;;;;;;;;;;;;;14.99;85.31;100484.66;5006386;28;20046;-84
2022/10/17 02:37:50;;;;;;;8.55;2.72;;;;;;;15.29;85.00;100483.50;4991490;28;19925;-85
2022/10/17 02:40:17;;;;;;;7.55;2.72;;;;;;;15.30;84.63;100485.19;4974303;28;20045;-85
2022/10/17 02:42:45;;;;;;;7.50;3.10;;;;;;;15.38;84.50;100497.81;4970926;28;20112;-86
2022/10/17 02:45:12;;;;;;;10.07;3.25;;;;;;;15.36;84.26;100483.72;5005324;28;20663;-85
2022/10/17 02:47:43;;;;;;;6.43;2.95;;;;;;;15.31;84.71;100499.38;4986568;28;20041;-85
2022/10/17 02:50:10;;;;;;;4.38;2.95;;;;;;;15.35;84.83;100479.38;5033646;28;20069;-84
2022/10/17 02:52:51;;;;;;;6.78;3.10;;;;;;;15.19;85.26;100490.75;5007885;28;20048;-85
2022/10/17 02:55:23;;;;;;;9.23;2.63;;;;;;;15.28;84.92;100487.16;4999894;28;20062;-85
2022/10/17 02:57:56;;;;;;;7.75;2.70;;;;;;;15.28;85.12;100480.97;5006231;28;20136;-84
2022/10/17 03:00:24;;;;;;;5.07;2.42;;;;;;;15.35;85.63;100490.09;5005122;28;20096;-85
2022/10/17 03:02:52;;;;;;;10.15;2.63;;;;;;;15.28;85.43;100487.16;4997886;28;20452;-84
2022/10/17 03:05:25;;;;;;;15.90;2.67;;;;;;;15.28;85.22;100500.53;4988836;28;20088;-85
2022/10/17 03:07:52;;;;;;;5.32;2.67;;;;;;;15.32;85.84;100499.25;4982947;28;20548;-85
2022/10/17 03:10:19;;;;;;;4.65;2.33;;;;;;;15.28;85.60;100502.38;4986448;28;20497;-84
2022/10/17 03:12:46;;;;;;;3.25;2.28;;;;;;;15.23;85.51;100499.31;4983070;28;20092;-84
2022/10/17 03:15:13;;;;;;;4.28;2.30;;;;;;;15.23;85.11;100501.97;5010388;28;20124;-84
2022/10/17 03:17:41;;;;;;;5.15;2.42;;;;;;;15.19;85.51;100510.31;5002507;28;20045;-85
2022/10/17 03:20:09;;;;;;;4.55;2.67;;;;;;;15.18;85.26;100507.78;5015880;28;20069;-85
2022/10/17 03:22:36;;;;;;;7.18;2.67;;;;;;;15.17;85.29;100500.75;4984502;28;20120;-84
2022/10/17 03:25:04;;;;;;;4.63;2.95;;;;;;;15.19;84.82;100504.97;5001110;28;20054;-84
2022/10/17 03:27:33;;;;;;;7.78;2.80;;;;;;;15.19;84.79;100504.97;5002807;28;20148;-85
2022/10/17 03:30:00;;;;;;;3.05;2.72;;;;;;;15.15;84.82;100502.72;5016421;28;20170;-89
2022/10/17 03:32:28;;;;;;;5.30;2.85;;;;;;;15.16;84.87;100501.72;5017356;28;20049;-88
2022/10/17 03:34:55;;;;;;;4.57;2.70;;;;;;;15.15;85.06;100506.22;5006409;28;20066;-86
2022/10/17 03:37:22;;;;;;;8.15;2.50;;;;;;;15.13;85.20;100507.38;5009018;28;20038;-87
2022/10/17 03:39:49;;;;;;;13.15;3.17;;;;;;;15.14;84.89;100507.25;4988200;28;20587;-90
2022/10/17 03:42:16;;;;;;;5.28;2.60;;;;;;;15.08;85.55;100510.50;5001790;28;20029;-89
2022/10/17 03:44:42;;;;;;;6.18;2.83;;;;;;;15.09;85.61;100509.53;5004404;28;20046;-88
2022/10/17 03:47:09;;;;;;;8.73;3.03;;;;;;;15.11;85.63;100509.34;4992505;28;20041;-90
2022/10/17 03:49:40;;;;;;;4.63;2.53;;;;;;;15.09;85.67;100511.34;4991701;28;20045;-89
2022/10/17 03:52:13;;;;;;;7.15;2.42;;;;;;;15.04;85.50;100503.78;5004591;28;20077;-89
2022/10/17 03:54:40;;;;;;;6.15;2.63;;;;;;;15.03;85.84;100499.41;4973795;28;20412;-89
2022/10/17 03:57:07;;;;;;;3.65;2.50;;;;;;;15.09;85.35;100509.53;4988099;28;20045;-89
2022/10/17 03:59:34;;;;;;;3.80;2.15;;;;;;;15.02;84.77;100504.91;4977677;28;20046;-89
2022/10/17 04:02:07;;;;;;;3.80;2.50;;;;;;;15.04;84.28;100505.63;4989157;28;20129;-90
2022/10/17 04:04:34;;;;;;;7.43;2.60;;;;;;;15.04;84.24;100517.16;4990313;28;20070;-90
2022/10/17 04:07:02;;;;;;;8.57;3.08;;;;;;;15.01;84.49;100516.56;5000325;28;20128;-90
2022/10/17 04:09:29;;;;;;;8.82;2.60;;;;;;;14.99;84.37;100524.78;5005839;28;20136;-90
2022/10/17 04:12:04;;;;;;;12.82;3.45;;;;;;;14.95;84.24;100524.19;5014785;28;22305;-89
2022/10/17 04:14:32;;;;;;;9.68;3.22;;;;;;;14.90;84.33;100520.28;5003255;28;20050;-90
2022/10/17 04:17:00;;;;;;;5.55;3.10;;;;;;;14.86;83.92;100527.78;5006529;28;20456;-89
2022/10/17 04:19:27;;;;;;;12.70;2.90;;;;;;;14.86;84.44;100529.63;4994969;28;20038;-90
2022/10/17 04:21:55;;;;;;;7.43;3.05;;;;;;;14.85;84.69;100525.25;5009097;28;20057;-89
2022/10/17 04:24:22;;;;;;;6.88;2.70;;;;;;;14.86;84.59;100527.78;5005838;28;20060;-91
2022/10/17 04:26:54;;;;;;;3.63;2.50;;;;;;;14.85;84.89;100530.59;5006534;28;20552;-89
2022/10/17 04:29:24;;;;;;;6.82;2.70;;;;;;;14.91;84.60;100530.03;5014173;28;20053;-89
2022/10/17 04:31:56;;;;;;;13.98;4.57;;;;;;;14.89;84.45;100532.00;5019878;28;20117;-89
2022/10/17 04:34:32;;;;;;;5.72;3.20;;;;;;;14.84;84.27;100542.28;5001767;28;20042;-90
2022/10/17 04:36:59;;;;;;;4.05;2.72;;;;;;;14.84;84.32;100539.59;5009175;28;20042;-89
2022/10/17 04:39:26;;;;;;;5.88;3.00;;;;;;;14.82;85.33;100533.56;5018209;28;20076;-88
2022/10/17 04:41:55;;;;;;;13.82;3.40;;;;;;;14.85;85.42;100530.59;5004668;28;20096;-90
2022/10/17 04:44:22;;;;;;;8.73;2.95;;;;;;;14.85;86.01;100541.28;5008100;28;20048;-89
2022/10/17 04:46:51;;;;;;;8.55;2.50;;;;;;;14.87;86.32;100542.81;4998732;28;20049;-89
2022/10/17 04:49:18;;;;;;;5.80;2.72;;;;;;;14.85;86.40;100552.81;5011311;28;20049;-90
2022/10/17 04:51:48;;;;;;;11.85;2.85;;;;;;;14.89;86.19;100542.69;5018645;28;20045;-89
2022/10/17 04:54:25;;;;;;;6.53;2.78;;;;;;;14.80;86.52;100547.06;5004742;28;20049;-89
2022/10/17 04:56:58;;;;;;;7.47;2.50;;;;;;;14.81;86.08;100543.41;5012811;28;20042;-89
2022/10/17 04:59:25;;;;;;;7.18;2.63;;;;;;;14.81;85.94;100546.09;5007105;28;20096;-90
2022/10/17 05:02:03;;;;;;;9.55;2.67;;;;;;;14.80;85.99;100552.41;5004682;28;20092;-90
2022/10/17 05:04:32;;;;;;;4.63;2.22;;;;;;;14.80;85.76;100552.41;5017822;28;20477;-89
2022/10/17 05:06:59;;;;;;;4.95;2.55;;;;;;;14.82;85.51;100553.09;5006042;28;20509;-89
2022/10/17 05:09:44;;;;;;;5.68;2.30;;;;;;;14.81;85.58;100542.53;5009017;28;20533;-89
2022/10/17 05:12:11;;;;;;;5.28;2.00;;;;;;;14.75;85.49;100549.31;5017898;28;20112;-90
2022/10/17 05:14:41;;;;;;;8.07;2.58;;;;;;;14.74;85.87;100558.34;4988180;28;20683;-78
2022/10/17 05:17:08;;;;;;;5.28;2.35;;;;;;;14.71;85.91;100559.47;5007183;28;20037;-78
2022/10/17 05:19:35;;;;;;;3.38;2.40;;;;;;;14.71;86.00;100556.81;5014612;28;20084;-78
2022/10/17 05:22:03;;;;;;;3.42;2.13;;;;;;;14.76;85.65;100565.22;5001952;28;20065;-78
2022/10/17 05:24:30;;;;;;;6.25;1.90;;;;;;;14.75;85.93;100558.19;5004760;28;20128;-78
2022/10/17 05:26:57;;;;;;;3.10;2.10;;;;;;;14.71;86.18;100567.50;5017421;28;20042;-78
2022/10/17 05:29:24;;;;;;;3.33;2.17;;;;;;;14.73;86.01;100570.88;5008584;28;20053;-78
2022/10/17 05:31:59;;;;;;;7.07;2.75;;;;;;;14.71;86.22;100572.84;5005186;28;20042;-79
2022/10/17 05:34:33;;;;;;;3.72;2.17;;;;;;;14.69;86.22;100577.47;4996502;28;20046;-79
2022/10/17 05:36:59;;;;;;;4.60;2.35;;;;;;;14.66;86.00;100582.28;5022403;28;20539;-78
2022/10/17 05:39:26;;;;;;;19.27;3.58;;;;;;;14.67;86.26;100576.78;5007442;28;20054;-79
2022/10/17 05:41:54;;;;;;;62.72;4.53;;;;;;;14.67;86.43;100579.44;5011368;28;20080;-79
2022/10/17 05:44:22;;;;;;;13.45;2.55;;;;;;;14.70;85.96;100576.47;5003189;28;20046;-78
2022/10/17 05:46:53;;;;;;;22.13;2.92;;;;;;;14.66;86.61;100568.94;4965737;28;20440;-79
2022/10/17 05:49:20;;;;;;;7.93;2.10;;;;;;;14.66;86.62;100566.25;4974568;28;20041;-79
2022/10/17 05:52:06;;;;;;;9.07;2.45;;;;;;;14.68;86.47;100580.28;5002325;28;20054;-78
2022/10/17 05:54:44;;;;;;;18.27;3.15;;;;;;;14.62;86.65;100576.38;5017816;28;20267;-79
2022/10/17 05:57:11;;;;;;;10.10;3.30;;;;;;;14.62;86.68;100580.88;5020131;28;20037;-79
2022/10/17 05:59:39;;;;;;;2.65;1.98;;;;;;;14.66;86.13;100579.63;4998110;28;20065;-78
2022/10/17 06:02:11;;;;;;;3.28;2.22;;;;;;;14.59;86.13;100575.81;4979163;28;20058;-79
2022/10/17 06:04:44;;;;;;;2.30;1.90;;;;;;;14.59;86.09;100582.00;4992950;28;20045;-78
2022/10/17 06:07:12;;;;;;;12.23;2.45;;;;;;;14.60;86.24;100582.84;4981053;28;20952;-79
2022/10/17 06:09:39;;;;;;;9.35;3.08;;;;;;;14.61;86.29;100584.56;4985221;28;20132;-78
2022/10/17 06:12:07;;;;;;;5.22;2.78;;;;;;;14.58;86.32;100584.81;4997470;28;20054;-79
2022/10/17 06:14:34;;;;;;;4.35;2.47;;;;;;;14.56;86.30;100589.47;5005020;28;20045;-79
2022/10/17 06:17:02;;;;;;;5.25;2.20;;;;;;;14.53;86.16;100598.63;4995615;28;20045;-79
2022/10/17 06:19:29;;;;;;;5.22;2.17;;;;;;;14.53;85.97;100598.63;5004555;28;20049;-79
2022/10/17 06:21:56;;;;;;;5.25;2.00;;;;;;;14.52;85.66;100604.91;5003319;28;20049;-78
2022/10/17 06:24:25;;;;;;;5.80;2.40;;;;;;;14.55;85.67;100604.66;5020054;28;20049;-79
2022/10/17 06:26:52;;;;;;;5.88;2.25;;;;;;;14.56;86.01;100610.88;5010130;28;20493;-80
2022/10/17 06:29:20;;;;;;;4.07;1.77;;;;;;;14.52;86.17;100607.59;5004045;28;20045;-78
2022/10/17 06:31:50;;;;;;;4.15;2.53;;;;;;;14.52;86.05;100603.06;4993450;28;20042;-79
2022/10/17 06:34:18;;;;;;;6.68;2.85;;;;;;;14.50;86.16;100599.72;5015877;28;20041;-79
2022/10/17 06:36:45;;;;;;;7.55;3.80;;;;;;;14.52;85.81;100600.41;5013701;28;20076;-79
2022/10/17 06:39:13;;;;;;;7.72;3.47;;;;;;;14.53;85.83;100602.13;5016020;28;20041;-78
2022/10/17 06:42:02;;;;;;;9.18;2.95;;;;;;;14.56;85.72;100602.84;4990918;28;20135;-79
2022/10/17 06:44:55;;;;;;;5.18;3.50;;;;;;;14.54;85.81;100611.00;4914833;28;20409;-79
2022/10/17 06:47:43;;;;;;;5.07;3.65;;;;;;;14.59;85.18;100610.56;5004409;28;20120;-79
2022/10/17 06:50:30;;;;;;;10.27;3.85;;;;;;;14.60;85.51;100612.25;4975995;28;20046;-78
2022/10/17 06:53:17;;;;;;;9.02;4.15;;;;;;;14.55;85.68;100615.34;4981435;28;20449;-78
2022/10/17 06:55:52;;;;;;;8.30;4.00;;;;;;;14.58;85.67;100623.09;4995171;28;20053;-78
2022/10/17 06:58:39;;;;;;;5.53;4.20;;;;;;;14.59;85.56;100623.94;4971826;28;20136;-79
2022/10/17 07:01:44;;;;;;;4.55;3.72;;;;;;;14.54;85.72;100622.53;4950104;28;20069;-78
2022/10/17 07:04:14;;;;;;;5.75;3.90;;;;;;;14.57;86.21;100623.22;5004190;28;20046;-78
2022/10/17 07:06:40;;;;;;;8.32;4.75;;;;;;;14.59;86.37;100623.94;5013540;28;20054;-78
2022/10/17 07:09:14;;;;;;;15.02;4.47;;;;;;;14.59;86.50;100634.63;4997718;28;20134;-79
2022/10/17 07:11:40;;;;;;;11.05;4.20;;;;;;;14.61;87.04;100632.66;5011769;28;20045;-79
2022/10/17 07:14:07;;;;;;;6.60;4.15;;;;;;;14.69;86.76;100630.94;5001293;28;20054;-79
2022/10/17 07:16:34;;;;;;;7.45;4.20;;;;;;;14.76;86.36;100632.06;4999705;28;20128;-78
2022/10/17 07:19:21;;;;;;;7.93;4.65;;;;;;;14.74;86.41;100635.88;4960786;28;20045;-79
2022/10/17 07:21:49;;;;;;;8.80;4.25;;;;;;;14.72;86.20;100636.00;5019152;28;20133;-78
2022/10/17 07:24:16;;;;;;;13.07;5.28;;;;;;;14.71;86.37;100644.19;5000602;28;20041;-78
2022/10/17 07:26:47;;;;;;;9.43;5.03;;;;;;;14.72;86.12;100635.16;5022322;28;20073;-78
2022/10/17 07:29:14;;;;;;;10.10;4.47;;;;;;;14.72;86.36;100635.16;5006751;28;20045;-78
2022/10/17 07:31:47;;;;;;;11.90;4.63;;;;;;;14.81;86.42;100636.13;5016915;28;20046;-78
2022/10/17 07:34:14;;;;;;;12.18;4.95;;;;;;;14.86;86.50;100640.09;5003850;28;20049;-78
2022/10/17 07:36:42;;;;;;;17.40;5.38;;;;;;;14.90;86.08;100636.13;5009110;28;20060;-78
2022/10/17 07:39:10;;;;;;;8.65;5.65;;;;;;;14.97;85.58;100645.25;5004452;28;20434;-78
2022/10/17 07:41:37;;;;;;;11.30;5.88;;;;;;;14.91;85.79;100645.84;4996144;28;20053;-78
2022/10/17 07:44:05;;;;;;;13.73;6.53;;;;;;;15.01;85.54;100650.31;5015264;28;20046;-78
2022/10/17 07:46:36;;;;;;;13.80;5.85;;;;;;;14.98;86.27;100659.47;5002587;28;20037;-78
2022/10/17 07:49:04;;;;;;;10.60;5.82;;;;;;;15.00;86.37;100660.16;5003859;28;20060;-78
2022/10/17 07:51:32;;;;;;;13.80;5.65;;;;;;;15.07;86.48;100660.44;5014794;28;20049;-78
2022/10/17 07:53:59;;;;;;;11.38;5.32;;;;;;;15.09;86.02;100667.34;4997896;28;20057;-78
2022/10/17 07:56:26;;;;;;;18.90;5.75;;;;;;;15.13;85.83;100657.19;5005445;28;20049;-78
2022/10/17 07:58:52;;;;;;;12.02;5.43;;;;;;;15.22;85.49;100661.66;5019218;28;20500;-78
2022/10/17 08:01:19;;;;;;;16.48;5.95;;;;;;;15.25;85.25;100660.53;5022642;28;20050;-78
2022/10/17 08:03:47;;;;;;;21.48;6.75;;;;;;;15.22;85.06;100655.47;4996100;28;20041;-78
2022/10/17 08:06:14;;;;;;;13.43;5.80;;;;;;;15.18;85.27;100662.94;5004208;28;20124;-78
2022/10/17 08:08:41;;;;;;;11.63;6.03;;;;;;;15.20;85.91;100669.00;4998684;28;20049;-79
2022/10/17 08:11:10;;;;;;;13.52;5.57;;;;;;;15.26;86.20;100663.03;5002580;28;20476;-78
2022/10/17 08:13:39;;;;;;;11.15;5.45;;;;;;;15.36;85.74;100669.22;4997372;28;20045;-79
2022/10/17 08:16:08;;;;;;;11.68;5.22;;;;;;;15.29;85.95;100670.81;5018045;28;20050;-78
2022/10/17 08:18:35;;;;;;;12.63;5.38;;;;;;;15.34;86.01;100678.38;5004912;28;20193;-78
2022/10/17 08:21:07;;;;;;;10.90;5.88;;;;;;;15.44;86.13;100675.66;5007684;28;20065;-78
2022/10/17 08:23:35;;;;;;;12.73;5.45;;;;;;;15.47;86.29;100670.00;5014961;28;20041;-79
2022/10/17 08:26:03;;;;;;;12.77;5.53;;;;;;;15.46;86.20;100671.84;5015450;28;20046;-78
2022/10/17 08:28:30;;;;;;;20.00;6.40;;;;;;;15.46;86.25;100665.66;5018797;28;20076;-80
2022/10/17 08:31:11;;;;;;;15.95;4.97;;;;;;;15.39;86.84;100666.25;4991698;28;20132;-79
2022/10/17 08:33:38;;;;;;;17.23;6.20;;;;;;;15.52;86.02;100657.91;5035893;28;20047;-79
2022/10/17 08:36:06;;;;;;;19.17;5.47;;;;;;;15.53;86.30;100664.09;5001992;28;20461;-79
2022/10/17 08:38:34;;;;;;;16.42;5.40;;;;;;;15.58;85.96;100678.72;5016119;28;20156;-79
2022/10/17 08:41:10;;;;;;;28.38;11.93;;;;;;;15.62;85.70;100674.75;5021164;28;20046;-79
2022/10/17 08:44:04;;;;;;;9.75;5.13;;;;;;;15.58;85.68;100681.38;5019194;28;20401;-79
2022/10/17 08:46:35;;;;;;;13.45;5.40;;;;;;;15.71;85.58;100680.25;4968992;28;20452;-79
2022/10/17 08:49:03;;;;;;;12.57;5.30;;;;;;;15.74;85.53;100675.41;5005447;28;20485;-80
2022/10/17 08:51:36;;;;;;;8.30;4.95;;;;;;;15.77;85.84;100683.19;5019473;28;20110;-79
2022/10/17 08:54:15;;;;;;;11.57;5.25;;;;;;;15.79;85.89;100683.00;5019818;28;20066;-80
2022/10/17 08:56:44;;;;;;;11.13;4.90;;;;;;;15.89;85.64;100683.81;5011365;28;20482;-80
2022/10/17 08:59:29;;;;;;;14.77;5.28;;;;;;;15.86;86.40;100681.44;4999132;28;20405;-80
2022/10/17 09:02:18;;;;;;;14.43;4.63;;;;;;;15.97;86.28;100683.06;5018244;28;20046;-79
2022/10/17 09:05:06;;;;;;;8.02;4.55;;;;;;;15.95;85.98;100677.88;5012609;28;20041;-79
2022/10/17 09:08:13;;;;;;;7.93;4.43;;;;;;;15.95;86.86;100682.34;5030284;28;20048;-79
2022/10/17 09:10:46;;;;;;;10.48;4.75;;;;;;;16.06;86.35;100674.97;4969495;28;20137;-79
2022/10/17 09:13:43;;;;;;;11.20;4.97;;;;;;;16.03;86.00;100674.44;5028415;28;20492;-79
2022/10/17 09:16:23;;;;;;;8.25;5.00;;;;;;;16.09;85.80;100668.47;4961749;28;20065;-79
2022/10/17 09:19:00;;;;;;;7.80;4.68;;;;;;;16.16;85.96;100671.41;5033997;28;20505;-79
2022/10/17 09:21:47;;;;;;;10.02;5.15;;;;;;;16.16;86.99;100672.22;4987861;28;20108;-79
2022/10/17 09:24:18;;;;;;;15.75;4.63;;;;;;;16.26;86.45;100667.66;4991949;28;20500;-79
2022/10/17 09:26:45;;;;;;;9.25;4.93;;;;;;;16.33;86.22;100673.22;5006700;28;20077;-79
2022/10/17 09:29:20;;;;;;;8.52;4.63;;;;;;;16.35;86.16;100665.88;5020097;28;20033;-79
2022/10/17 09:31:58;;;;;;;8.18;4.07;;;;;;;16.37;85.78;100668.41;4976738;28;20046;-79
2022/10/17 09:34:27;;;;;;;7.53;3.65;;;;;;;16.44;86.10;100664.13;5004517;28;20045;-79
2022/10/17 09:36:54;;;;;;;10.50;5.55;;;;;;;16.49;86.34;100660.00;4995680;28;20074;-79
2022/10/17 09:39:25;;;;;;;9.55;4.40;;;;;;;16.51;86.32;100651.78;5007309;28;20104;-79
2022/10/17 09:41:54;;;;;;;5.90;3.50;;;;;;;16.57;86.51;100655.69;4996446;28;20080;-79
2022/10/17 09:44:22;;;;;;;15.27;4.10;;;;;;;16.59;87.17;100649.19;5006813;28;20069;-79
2022/10/17 09:47:00;;;;;;;11.80;4.13;;;;;;;16.60;86.97;100647.34;5005650;28;20073;-79
2022/10/17 09:49:32;;;;;;;8.63;3.63;;;;;;;16.66;87.34;100652.06;5015747;28;20402;-79
2022/10/17 09:52:04;;;;;;;15.80;4.25;;;;;;;16.70;87.46;100656.13;5010128;28;24555;-79
2022/10/17 09:54:45;;;;;;;6.25;4.10;;;;;;;16.65;87.35;100666.47;5022976;28;20057;-79
2022/10/17 09:57:13;;;;;;;14.30;4.50;;;;;;;16.75;86.97;100658.34;5011966;28;20733;-80
2022/10/17 09:59:41;;;;;;;7.68;3.75;;;;;;;16.78;86.70;100663.44;4996130;28;20536;-81
2022/10/17 10:02:11;;;;;;;8.65;4.20;;;;;;;16.80;86.91;100664.97;5015779;28;20052;-79
2022/10/17 10:05:16;;;;;;;17.23;4.13;;;;;;;16.77;86.75;100675.16;5028477;28;20071;-79
2022/10/17 10:08:02;;;;;;;12.23;5.10;;;;;;;16.80;86.13;100677.53;4968639;28;20046;-79
2022/10/17 10:10:30;;;;;;;8.18;4.32;;;;;;;16.89;86.49;100672.09;5002879;28;20156;-79
2022/10/17 10:13:19;;;;;;;6.60;4.18;;;;;;;16.83;86.38;100678.06;5007668;28;20045;-79
2022/10/17 10:15:48;;;;;;;7.78;3.65;;;;;;;16.95;86.44;100670.63;4979161;28;20057;-79
2022/10/17 10:18:23;;;;;;;8.80;3.90;;;;;;;16.95;86.16;100675.16;5006071;28;20531;-79
2022/10/17 10:21:10;;;;;;;17.52;5.63;;;;;;;16.96;86.01;100683.03;5012890;28;20041;-79
2022/10/17 10:23:39;;;;;;;7.30;4.05;;;;;;;17.05;85.98;100676.72;4978635;28;20493;-80
2022/10/17 10:26:22;;;;;;;14.93;5.55;;;;;;;17.02;86.21;100676.19;4995823;28;20444;-79
2022/10/17 10:29:22;;;;;;;6.63;3.85;;;;;;;17.03;86.04;100681.41;5012109;28;20096;-79
2022/10/17 10:31:49;;;;;;;9.82;4.30;;;;;;;17.15;86.43;100682.00;4986094;28;20129;-79
2022/10/17 10:34:23;;;;;;;12.93;4.70;;;;;;;17.17;86.18;100676.44;4996849;28;20046;-79
2022/10/17 10:37:16;;;;;;;9.80;5.60;;;;;;;17.17;86.57;100676.44;5011867;28;21070;-79
2022/10/17 10:39:53;;;;;;;15.18;5.18;;;;;;;17.21;85.85;100680.50;4990917;28;20041;-79
2022/10/17 10:42:39;;;;;;;8.25;5.00;;;;;;;17.23;85.99;100673.16;5019092;28;20111;-79
2022/10/17 10:45:18;;;;;;;5.78;4.20;;;;;;;17.27;85.44;100671.81;4962498;28;20053;-81
2022/10/17 10:48:23;;;;;;;8.80;4.50;;;;;;;17.28;85.89;100671.66;4959702;28;20046;-79
2022/10/17 10:51:07;;;;;;;11.85;4.03;;;;;;;17.32;85.62;100683.75;5001365;28;20069;-80
2022/10/17 10:53:44;;;;;;;13.63;3.60;;;;;;;17.38;85.55;100678.75;4988472;28;20556;-79
2022/10/17 10:56:27;;;;;;;10.25;3.97;;;;;;;17.38;86.19;100676.94;5011163;28;20456;-79
2022/10/17 10:58:55;;;;;;;;;;;;;;;17.31;87.56;100681.25;5006328;28;20038;-80
2022/10/17 11:01:40;;;;;;;10.02;4.00;;;;;;;17.49;86.52;100679.31;5012034;28;19963;-80
2022/10/17 11:04:21;;;;;;;9.70;3.78;;;;;;;17.49;86.43;100673.97;5019166;28;20049;-79
2022/10/17 11:06:51;;;;;;;11.90;3.65;;;;;;;17.60;86.26;100672.00;5001462;28;20053;-79
2022/10/17 11:09:55;;;;;;;9.80;4.40;;;;;;;17.54;86.73;100668.94;4994239;28;20139;-79
2022/10/17 11:12:44;;;;;;;11.40;4.38;;;;;;;17.61;86.91;100668.31;4919768;28;20624;-80
2022/10/17 11:15:20;;;;;;;7.05;4.28;;;;;;;17.72;86.29;100662.66;4965899;28;20041;-80
2022/10/17 11:17:57;;;;;;;13.57;4.10;;;;;;;17.70;86.55;100664.66;5006185;28;20049;-79
2022/10/17 11:20:51;;;;;;;7.30;3.78;;;;;;;17.72;86.38;100662.66;4964838;28;20165;-80
2022/10/17 11:23:46;;;;;;;9.95;4.20;;;;;;;17.72;86.47;100663.47;5014013;28;20507;-80
2022/10/17 11:26:25;;;;;;;13.82;4.55;;;;;;;17.84;86.75;100658.69;4949952;28;20045;-80
2022/10/17 11:28:57;;;;;;;5.50;3.85;;;;;;;17.90;86.39;100659.88;5002479;28;20454;-81
2022/10/17 11:31:35;;;;;;;10.73;4.22;;;;;;;17.94;86.52;100661.25;4986849;28;20100;-80
2022/10/17 11:34:04;;;;;;;6.32;3.97;;;;;;;18.00;86.92;100663.28;5015621;28;20123;-80
2022/10/17 11:36:34;;;;;;;6.47;4.10;;;;;;;18.04;86.74;100664.66;4987979;28;20091;-80
2022/10/17 11:39:04;;;;;;;9.27;3.92;;;;;;;18.06;86.43;100670.66;4998310;28;20042;-79
2022/10/17 11:41:41;;;;;;;11.85;4.03;;;;;;;18.08;86.82;100667.81;5009522;28;20532;-80
2022/10/17 11:44:24;;;;;;;6.75;3.80;;;;;;;18.05;86.58;100673.53;5012162;28;20072;-80
2022/10/17 11:47:29;;;;;;;10.45;4.15;;;;;;;18.02;86.15;100680.09;4976503;28;20049;-80
2022/10/17 11:50:04;;;;;;;10.20;4.32;;;;;;;18.12;86.30;100680.78;4927006;28;20054;-80